sensor_id;sensor_type;location;lat;lon;timestamp;pressure;altitude;pressure_sealevel;temperature;humidity
2184;BME280;1098;48.940;8.962;2023-03-19T00:01:06;98212.28;;;9.13;100.00
2184;BME280;1098;48.940;8.962;2023-03-19T00:03:34;98208.81;;;9.24;100.00
2184;BME280;1098;48.940;8.962;2023-03-19T00:06:03;98210.97;;;9.52;100.00
2184;BME280;1098;48.940;8.962;2023-03-19T00:08:33;98205.44;;;9.47;100.00
2184;BME280;1098;48.940;8.962;2023-03-19T00:11:05;98213.22;;;9.37;100.00
2184;BME280;1098;48.940;8.962;2023-03-19T00:13:34;98213.19;;;9.73;100.00
2184;BME280;1098;48.940;8.962;2023-03-19T00:16:03;98204.84;;;9.45;100.00
2184;BME280;1098;48.940;8.962;2023-03-19T00:18:32;98211.44;;;9.49;100.00
2184;BME280;1098;48.940;8.962;2023-03-19T00:21:00;98214.63;;;9.57;100.00
2184;BME280;1098;48.940;8.962;2023-03-19T00:23:31;98215.13;;;9.66;100.00
2184;BME280;1098;48.940;8.962;2023-03-19T00:26:01;98212.84;;;9.81;100.00
2184;BME280;1098;48.940;8.962;2023-03-19T00:28:29;98203.41;;;10.02;100.00
2184;BME280;1098;48.940;8.962;2023-03-19T00:31:06;98199.75;;;9.55;100.00
2184;BME280;1098;48.940;8.962;2023-03-19T00:33:34;98197.81;;;9.74;100.00
2184;BME280;1098;48.940;8.962;2023-03-19T00:36:04;98190.34;;;9.87;100.00
2184;BME280;1098;48.940;8.962;2023-03-19T00:38:33;98191.84;;;10.13;100.00
2184;BME280;1098;48.940;8.962;2023-03-19T00:41:04;98205.19;;;9.67;100.00
2184;BME280;1098;48.940;8.962;2023-03-19T00:43:33;98197.25;;;9.83;100.00
2184;BME280;1098;48.940;8.962;2023-03-19T00:46:03;98196.34;;;9.89;100.00
2184;BME280;1098;48.940;8.962;2023-03-19T00:48:32;98196.72;;;9.63;100.00
2184;BME280;1098;48.940;8.962;2023-03-19T00:51:02;98214.75;;;9.33;100.00
2184;BME280;1098;48.940;8.962;2023-03-19T00:53:31;98211.22;;;9.32;100.00
2184;BME280;1098;48.940;8.962;2023-03-19T00:55:59;98216.28;;;9.40;100.00
2184;BME280;1098;48.940;8.962;2023-03-19T00:58:29;98209.56;;;9.31;100.00
2184;BME280;1098;48.940;8.962;2023-03-19T01:00:57;98207.69;;;9.32;100.00
2184;BME280;1098;48.940;8.962;2023-03-19T01:03:29;98202.53;;;9.12;100.00
2184;BME280;1098;48.940;8.962;2023-03-19T01:05:57;98197.78;;;9.44;100.00
2184;BME280;1098;48.940;8.962;2023-03-19T01:08:26;98221.41;;;9.30;100.00
2184;BME280;1098;48.940;8.962;2023-03-19T01:10:54;98213.31;;;9.48;100.00
2184;BME280;1098;48.940;8.962;2023-03-19T01:13:24;98217.28;;;9.27;100.00
2184;BME280;1098;48.940;8.962;2023-03-19T01:15:54;98224.38;;;9.40;100.00
2184;BME280;1098;48.940;8.962;2023-03-19T01:18:22;98223.50;;;9.46;100.00
2184;BME280;1098;48.940;8.962;2023-03-19T01:20:53;98225.78;;;9.61;100.00
2184;BME280;1098;48.940;8.962;2023-03-19T01:23:22;98225.56;;;9.62;100.00
2184;BME280;1098;48.940;8.962;2023-03-19T01:25:51;98221.63;;;9.47;100.00
2184;BME280;1098;48.940;8.962;2023-03-19T01:28:19;98245.66;;;9.48;100.00
2184;BME280;1098;48.940;8.962;2023-03-19T01:30:48;98251.78;;;9.37;100.00
2184;BME280;1098;48.940;8.962;2023-03-19T01:33:36;98253.44;;;9.38;100.00
2184;BME280;1098;48.940;8.962;2023-03-19T01:36:19;98259.59;;;9.45;100.00
2184;BME280;1098;48.940;8.962;2023-03-19T01:38:56;98262.72;;;9.42;100.00
2184;BME280;1098;48.940;8.962;2023-03-19T01:41:24;98252.69;;;9.49;100.00
2184;BME280;1098;48.940;8.962;2023-03-19T01:43:57;98265.69;;;9.89;100.00
2184;BME280;1098;48.940;8.962;2023-03-19T01:46:48;98279.28;;;9.64;100.00
2184;BME280;1098;48.940;8.962;2023-03-19T01:49:33;98291.22;;;9.75;100.00
2184;BME280;1098;48.940;8.962;2023-03-19T01:52:14;98264.22;;;9.38;100.00
2184;BME280;1098;48.940;8.962;2023-03-19T01:55:02;98274.72;;;10.13;100.00
2184;BME280;1098;48.940;8.962;2023-03-19T01:57:53;98283.16;;;9.86;100.00
2184;BME280;1098;48.940;8.962;2023-03-19T02:00:42;98285.00;;;9.74;100.00
2184;BME280;1098;48.940;8.962;2023-03-19T02:03:10;98275.03;;;10.05;100.00
2184;BME280;1098;48.940;8.962;2023-03-19T02:05:45;98271.25;;;9.94;100.00
2184;BME280;1098;48.940;8.962;2023-03-19T02:08:18;98277.75;;;9.86;100.00
2184;BME280;1098;48.940;8.962;2023-03-19T02:10:49;98280.31;;;9.81;100.00
2184;BME280;1098;48.940;8.962;2023-03-19T02:13:18;98277.00;;;9.97;100.00
2184;BME280;1098;48.940;8.962;2023-03-19T02:15:50;98290.22;;;9.69;100.00
2184;BME280;1098;48.940;8.962;2023-03-19T02:18:19;98286.72;;;10.17;100.00
2184;BME280;1098;48.940;8.962;2023-03-19T02:20:57;98284.53;;;10.07;100.00
2184;BME280;1098;48.940;8.962;2023-03-19T02:23:37;98278.41;;;10.00;100.00
2184;BME280;1098;48.940;8.962;2023-03-19T02:26:16;98288.63;;;9.80;100.00
2184;BME280;1098;48.940;8.962;2023-03-19T02:28:49;98292.38;;;9.79;100.00
2184;BME280;1098;48.940;8.962;2023-03-19T02:31:24;98296.28;;;9.83;100.00
2184;BME280;1098;48.940;8.962;2023-03-19T02:33:58;98300.78;;;9.89;100.00
2184;BME280;1098;48.940;8.962;2023-03-19T02:36:31;98296.03;;;10.03;100.00
2184;BME280;1098;48.940;8.962;2023-03-19T02:39:02;98287.09;;;10.20;100.00
2184;BME280;1098;48.940;8.962;2023-03-19T02:41:36;98279.06;;;10.44;100.00
2184;BME280;1098;48.940;8.962;2023-03-19T02:44:07;98275.91;;;10.17;100.00
2184;BME280;1098;48.940;8.962;2023-03-19T02:46:37;98272.81;;;9.83;100.00
2184;BME280;1098;48.940;8.962;2023-03-19T02:49:06;98271.78;;;10.44;100.00
2184;BME280;1098;48.940;8.962;2023-03-19T02:51:34;98278.00;;;9.85;100.00
2184;BME280;1098;48.940;8.962;2023-03-19T02:54:04;98278.91;;;10.09;100.00
2184;BME280;1098;48.940;8.962;2023-03-19T02:56:32;98270.38;;;10.12;100.00
2184;BME280;1098;48.940;8.962;2023-03-19T02:59:02;98281.31;;;9.32;100.00
2184;BME280;1098;48.940;8.962;2023-03-19T03:01:33;98296.28;;;9.28;100.00
2184;BME280;1098;48.940;8.962;2023-03-19T03:04:03;98302.38;;;9.42;100.00
2184;BME280;1098;48.940;8.962;2023-03-19T03:06:31;98294.59;;;9.34;100.00
2184;BME280;1098;48.940;8.962;2023-03-19T03:09:01;98300.44;;;9.49;100.00
2184;BME280;1098;48.940;8.962;2023-03-19T03:11:30;98308.88;;;9.89;100.00
2184;BME280;1098;48.940;8.962;2023-03-19T03:14:02;98300.81;;;10.00;100.00
2184;BME280;1098;48.940;8.962;2023-03-19T03:16:32;98300.44;;;9.49;100.00
2184;BME280;1098;48.940;8.962;2023-03-19T03:19:04;98302.72;;;9.27;100.00
2184;BME280;1098;48.940;8.962;2023-03-19T03:21:32;98305.28;;;9.40;100.00
2184;BME280;1098;48.940;8.962;2023-03-19T03:24:02;98310.66;;;9.40;100.00
2184;BME280;1098;48.940;8.962;2023-03-19T03:26:31;98308.81;;;9.41;100.00
2184;BME280;1098;48.940;8.962;2023-03-19T03:29:02;98299.66;;;9.60;100.00
2184;BME280;1098;48.940;8.962;2023-03-19T03:31:30;98308.97;;;9.46;100.00
2184;BME280;1098;48.940;8.962;2023-03-19T03:33:59;98314.19;;;9.77;100.00
2184;BME280;1098;48.940;8.962;2023-03-19T03:36:28;98303.00;;;9.19;100.00
2184;BME280;1098;48.940;8.962;2023-03-19T03:38:57;98309.72;;;9.35;100.00
2184;BME280;1098;48.940;8.962;2023-03-19T03:41:25;98309.59;;;9.05;100.00
2184;BME280;1098;48.940;8.962;2023-03-19T03:43:54;98315.38;;;8.83;100.00
2184;BME280;1098;48.940;8.962;2023-03-19T03:46:25;98316.31;;;8.71;100.00
2184;BME280;1098;48.940;8.962;2023-03-19T03:48:53;98323.63;;;8.88;100.00
2184;BME280;1098;48.940;8.962;2023-03-19T03:51:22;98327.06;;;9.20;100.00
2184;BME280;1098;48.940;8.962;2023-03-19T03:53:50;98321.59;;;9.27;100.00
2184;BME280;1098;48.940;8.962;2023-03-19T03:56:19;98320.56;;;9.46;100.00
2184;BME280;1098;48.940;8.962;2023-03-19T03:58:50;98313.25;;;9.35;100.00
2184;BME280;1098;48.940;8.962;2023-03-19T04:01:19;98314.13;;;9.47;100.00
2184;BME280;1098;48.940;8.962;2023-03-19T04:03:54;98311.31;;;9.17;100.00
2184;BME280;1098;48.940;8.962;2023-03-19T04:06:23;98319.22;;;9.37;100.00
2184;BME280;1098;48.940;8.962;2023-03-19T04:09:12;98324.47;;;9.50;100.00
2184;BME280;1098;48.940;8.962;2023-03-19T04:11:41;98324.25;;;9.52;100.00
2184;BME280;1098;48.940;8.962;2023-03-19T04:14:09;98332.78;;;9.67;100.00
2184;BME280;1098;48.940;8.962;2023-03-19T04:16:38;98334.06;;;9.46;100.00
2184;BME280;1098;48.940;8.962;2023-03-19T04:19:09;98336.53;;;9.66;100.00
2184;BME280;1098;48.940;8.962;2023-03-19T04:21:38;98337.69;;;9.77;100.00
2184;BME280;1098;48.940;8.962;2023-03-19T04:24:06;98341.25;;;9.71;100.00
2184;BME280;1098;48.940;8.962;2023-03-19T04:26:36;98341.25;;;9.71;100.00
2184;BME280;1098;48.940;8.962;2023-03-19T04:29:06;98337.56;;;9.83;100.00
2184;BME280;1098;48.940;8.962;2023-03-19T04:31:36;98337.44;;;9.78;100.00
2184;BME280;1098;48.940;8.962;2023-03-19T04:34:05;98343.28;;;9.93;100.00
2184;BME280;1098;48.940;8.962;2023-03-19T04:36:35;98342.69;;;9.73;100.00
2184;BME280;1098;48.940;8.962;2023-03-19T04:39:04;98345.84;;;9.88;100.00
2184;BME280;1098;48.940;8.962;2023-03-19T04:41:33;98339.16;;;9.73;100.00
2184;BME280;1098;48.940;8.962;2023-03-19T04:44:24;98341.03;;;9.90;100.00
2184;BME280;1098;48.940;8.962;2023-03-19T04:46:53;98342.69;;;9.73;100.00
2184;BME280;1098;48.940;8.962;2023-03-19T04:49:22;98342.22;;;9.58;100.00
2184;BME280;1098;48.940;8.962;2023-03-19T04:51:56;98345.06;;;9.81;100.00
2184;BME280;1098;48.940;8.962;2023-03-19T04:54:24;98344.56;;;9.73;100.00
2184;BME280;1098;48.940;8.962;2023-03-19T04:56:54;98335.03;;;9.88;100.00
2184;BME280;1098;48.940;8.962;2023-03-19T04:59:25;98345.06;;;9.63;100.00
2184;BME280;1098;48.940;8.962;2023-03-19T05:01:54;98339.91;;;9.43;100.00
2184;BME280;1098;48.940;8.962;2023-03-19T05:04:25;98361.38;;;9.32;100.00
2184;BME280;1098;48.940;8.962;2023-03-19T05:07:01;98368.25;;;9.27;100.00
2184;BME280;1098;48.940;8.962;2023-03-19T05:09:30;98366.78;;;9.32;100.00
2184;BME280;1098;48.940;8.962;2023-03-19T05:11:58;98376.06;;;9.36;100.00
2184;BME280;1098;48.940;8.962;2023-03-19T05:14:29;98376.72;;;9.74;100.00
2184;BME280;1098;48.940;8.962;2023-03-19T05:17:13;98368.91;;;8.98;100.00
2184;BME280;1098;48.940;8.962;2023-03-19T05:20:08;98379.25;;;9.26;100.00
2184;BME280;1098;48.940;8.962;2023-03-19T05:22:44;98386.94;;;9.47;100.00
2184;BME280;1098;48.940;8.962;2023-03-19T05:25:15;98378.41;;;9.50;100.00
2184;BME280;1098;48.940;8.962;2023-03-19T05:27:44;98386.97;;;9.65;100.00
2184;BME280;1098;48.940;8.962;2023-03-19T05:30:18;98375.06;;;9.73;100.00
2184;BME280;1098;48.940;8.962;2023-03-19T05:33:16;98373.91;;;9.99;100.00
2184;BME280;1098;48.940;8.962;2023-03-19T05:35:45;98370.09;;;10.07;100.00
2184;BME280;1098;48.940;8.962;2023-03-19T05:38:35;98369.66;;;10.28;100.00
2184;BME280;1098;48.940;8.962;2023-03-19T05:41:08;98376.78;;;9.86;100.00
2184;BME280;1098;48.940;8.962;2023-03-19T05:43:57;98380.16;;;9.99;100.00
2184;BME280;1098;48.940;8.962;2023-03-19T05:46:43;98373.25;;;10.22;100.00
2184;BME280;1098;48.940;8.962;2023-03-19T05:49:12;98374.53;;;9.21;100.00
2184;BME280;1098;48.940;8.962;2023-03-19T05:51:41;98377.53;;;9.13;100.00
2184;BME280;1098;48.940;8.962;2023-03-19T05:54:11;98389.53;;;9.36;100.00
2184;BME280;1098;48.940;8.962;2023-03-19T05:57:04;98391.25;;;9.91;100.00
2184;BME280;1098;48.940;8.962;2023-03-19T05:59:47;98396.88;;;10.08;100.00
2184;BME280;1098;48.940;8.962;2023-03-19T06:02:40;98386.44;;;9.57;100.00
2184;BME280;1098;48.940;8.962;2023-03-19T06:05:34;98396.22;;;10.13;100.00
2184;BME280;1098;48.940;8.962;2023-03-19T06:08:11;98393.34;;;9.89;100.00
2184;BME280;1098;48.940;8.962;2023-03-19T06:10:56;98390.72;;;10.01;100.00
2184;BME280;1098;48.940;8.962;2023-03-19T06:13:25;98394.56;;;9.75;100.00
2184;BME280;1098;48.940;8.962;2023-03-19T06:15:57;98401.59;;;10.13;100.00
2184;BME280;1098;48.940;8.962;2023-03-19T06:18:38;98398.38;;;9.86;100.00
2184;BME280;1098;48.940;8.962;2023-03-19T06:21:10;98404.19;;;9.64;100.00
2184;BME280;1098;48.940;8.962;2023-03-19T06:23:38;98409.28;;;9.97;100.00
2184;BME280;1098;48.940;8.962;2023-03-19T06:26:10;98403.38;;;10.00;100.00
2184;BME280;1098;48.940;8.962;2023-03-19T06:28:44;98408.50;;;9.90;100.00
2184;BME280;1098;48.940;8.962;2023-03-19T06:31:15;98406.38;;;10.47;100.00
2184;BME280;1098;48.940;8.962;2023-03-19T06:33:53;98402.44;;;10.13;100.00
2184;BME280;1098;48.940;8.962;2023-03-19T06:36:25;98392.22;;;10.15;100.00
2184;BME280;1098;48.940;8.962;2023-03-19T06:38:54;98400.09;;;9.98;100.00
2184;BME280;1098;48.940;8.962;2023-03-19T06:41:24;98396.50;;;10.23;100.00
2184;BME280;1098;48.940;8.962;2023-03-19T06:43:59;98389.94;;;10.49;100.00
2184;BME280;1098;48.940;8.962;2023-03-19T06:46:28;98384.03;;;10.70;100.00
2184;BME280;1098;48.940;8.962;2023-03-19T06:48:57;98382.47;;;10.62;100.00
2184;BME280;1098;48.940;8.962;2023-03-19T06:51:25;98389.00;;;10.85;100.00
2184;BME280;1098;48.940;8.962;2023-03-19T06:53:56;98391.00;;;10.78;100.00
2184;BME280;1098;48.940;8.962;2023-03-19T06:56:26;98387.03;;;10.92;100.00
2184;BME280;1098;48.940;8.962;2023-03-19T06:58:55;98395.13;;;10.50;100.00
2184;BME280;1098;48.940;8.962;2023-03-19T07:01:26;98404.84;;;10.21;100.00
2184;BME280;1098;48.940;8.962;2023-03-19T07:03:54;98410.88;;;9.98;100.00
2184;BME280;1098;48.940;8.962;2023-03-19T07:06:24;98408.56;;;9.84;100.00
2184;BME280;1098;48.940;8.962;2023-03-19T07:08:54;98415.78;;;9.90;100.00
2184;BME280;1098;48.940;8.962;2023-03-19T07:11:23;98411.66;;;10.06;100.00
2184;BME280;1098;48.940;8.962;2023-03-19T07:13:52;98406.63;;;10.76;100.00
2184;BME280;1098;48.940;8.962;2023-03-19T07:16:21;98394.00;;;11.11;100.00
2184;BME280;1098;48.940;8.962;2023-03-19T07:18:52;98395.56;;;11.65;100.00
2184;BME280;1098;48.940;8.962;2023-03-19T07:21:20;98394.84;;;11.47;100.00
2184;BME280;1098;48.940;8.962;2023-03-19T07:23:51;98392.16;;;11.47;100.00
2184;BME280;1098;48.940;8.962;2023-03-19T07:26:19;98393.34;;;11.74;100.00
2184;BME280;1098;48.940;8.962;2023-03-19T07:28:48;98394.13;;;11.28;100.00
2184;BME280;1098;48.940;8.962;2023-03-19T07:31:17;98403.47;;;10.90;100.00
2184;BME280;1098;48.940;8.962;2023-03-19T07:33:48;98414.28;;;10.60;100.00
2184;BME280;1098;48.940;8.962;2023-03-19T07:36:16;98413.56;;;10.83;100.00
2184;BME280;1098;48.940;8.962;2023-03-19T07:38:44;98418.13;;;11.13;100.00
2184;BME280;1098;48.940;8.962;2023-03-19T07:41:13;98413.09;;;11.40;100.00
2184;BME280;1098;48.940;8.962;2023-03-19T07:43:41;98412.69;;;12.29;100.00
2184;BME280;1098;48.940;8.962;2023-03-19T07:46:09;98388.75;;;12.38;100.00
2184;BME280;1098;48.940;8.962;2023-03-19T07:48:39;98399.41;;;12.56;100.00
2184;BME280;1098;48.940;8.962;2023-03-19T07:51:10;98394.16;;;12.95;100.00
2184;BME280;1098;48.940;8.962;2023-03-19T07:53:39;98390.09;;;13.59;100.00
2184;BME280;1098;48.940;8.962;2023-03-19T07:56:09;98387.06;;;13.22;100.00
2184;BME280;1098;48.940;8.962;2023-03-19T07:58:38;98391.56;;;12.43;100.00
2184;BME280;1098;48.940;8.962;2023-03-19T08:01:06;98379.06;;;13.32;100.00
2184;BME280;1098;48.940;8.962;2023-03-19T08:03:35;98399.09;;;12.69;100.00
2184;BME280;1098;48.940;8.962;2023-03-19T08:06:05;98383.53;;;12.77;100.00
2184;BME280;1098;48.940;8.962;2023-03-19T08:08:33;98394.72;;;12.97;100.00
2184;BME280;1098;48.940;8.962;2023-03-19T08:11:02;98387.59;;;13.07;100.00
2184;BME280;1098;48.940;8.962;2023-03-19T08:13:30;98393.50;;;13.88;100.00
2184;BME280;1098;48.940;8.962;2023-03-19T08:15:59;98401.69;;;13.93;100.00
2184;BME280;1098;48.940;8.962;2023-03-19T08:18:27;98399.81;;;13.94;100.00
2184;BME280;1098;48.940;8.962;2023-03-19T08:20:58;98402.84;;;13.97;100.00
2184;BME280;1098;48.940;8.962;2023-03-19T08:23:28;98395.19;;;13.56;100.00
2184;BME280;1098;48.940;8.962;2023-03-19T08:25:56;98399.19;;;13.87;100.00
2184;BME280;1098;48.940;8.962;2023-03-19T08:28:25;98400.28;;;13.52;100.00
2184;BME280;1098;48.940;8.962;2023-03-19T08:30:56;98403.91;;;13.41;100.00
2184;BME280;1098;48.940;8.962;2023-03-19T08:33:24;98404.13;;;13.73;100.00
2184;BME280;1098;48.940;8.962;2023-03-19T08:35:53;98409.19;;;14.25;100.00
2184;BME280;1098;48.940;8.962;2023-03-19T08:38:21;98408.47;;;14.51;100.00
2184;BME280;1098;48.940;8.962;2023-03-19T08:40:51;98418.56;;;14.34;100.00
2184;BME280;1098;48.940;8.962;2023-03-19T08:43:37;98422.59;;;14.09;100.00
2184;BME280;1098;48.940;8.962;2023-03-19T08:46:06;98417.38;;;13.86;100.00
2184;BME280;1098;48.940;8.962;2023-03-19T08:48:34;98414.22;;;14.82;100.00
2184;BME280;1098;48.940;8.962;2023-03-19T08:51:05;98425.56;;;15.00;100.00
2184;BME280;1098;48.940;8.962;2023-03-19T08:53:34;98424.44;;;14.69;100.00
2184;BME280;1098;48.940;8.962;2023-03-19T08:56:05;98421.94;;;15.17;100.00
2184;BME280;1098;48.940;8.962;2023-03-19T08:58:34;98421.59;;;15.40;100.00
2184;BME280;1098;48.940;8.962;2023-03-19T09:01:04;98426.75;;;15.36;100.00
2184;BME280;1098;48.940;8.962;2023-03-19T09:03:33;98430.28;;;15.37;100.00
2184;BME280;1098;48.940;8.962;2023-03-19T09:06:03;98428.41;;;15.37;100.00
2184;BME280;1098;48.940;8.962;2023-03-19T09:08:35;98418.16;;;15.87;100.00
2184;BME280;1098;48.940;8.962;2023-03-19T09:11:05;98439.91;;;15.76;100.00
2184;BME280;1098;48.940;8.962;2023-03-19T09:13:37;98433.47;;;15.29;100.00
2184;BME280;1098;48.940;8.962;2023-03-19T09:16:08;98430.91;;;15.81;100.00
2184;BME280;1098;48.940;8.962;2023-03-19T09:18:36;98430.81;;;15.07;100.00
2184;BME280;1098;48.940;8.962;2023-03-19T09:21:05;98433.03;;;15.69;100.00
2184;BME280;1098;48.940;8.962;2023-03-19T09:23:33;98420.53;;;15.73;100.00
2184;BME280;1098;48.940;8.962;2023-03-19T09:26:01;98430.56;;;15.40;100.00
2184;BME280;1098;48.940;8.962;2023-03-19T09:28:31;98427.72;;;15.89;100.00
2184;BME280;1098;48.940;8.962;2023-03-19T09:30:59;98417.59;;;15.85;100.00
2184;BME280;1098;48.940;8.962;2023-03-19T09:33:33;98430.75;;;15.93;100.00
2184;BME280;1098;48.940;8.962;2023-03-19T09:36:03;98422.97;;;16.17;100.00
2184;BME280;1098;48.940;8.962;2023-03-19T09:38:33;98431.09;;;16.06;100.00
2184;BME280;1098;48.940;8.962;2023-03-19T09:41:08;98422.97;;;16.22;100.00
2184;BME280;1098;48.940;8.962;2023-03-19T09:43:53;98421.38;;;16.21;100.00
2184;BME280;1098;48.940;8.962;2023-03-19T09:46:30;98417.94;;;15.93;100.00
2184;BME280;1098;48.940;8.962;2023-03-19T09:49:03;98415.09;;;15.46;100.00
2184;BME280;1098;48.940;8.962;2023-03-19T09:51:39;98424.19;;;14.98;100.00
2184;BME280;1098;48.940;8.962;2023-03-19T09:54:24;98416.75;;;15.47;100.00
2184;BME280;1098;48.940;8.962;2023-03-19T09:56:53;98401.66;;;15.66;100.00
2184;BME280;1098;48.940;8.962;2023-03-19T09:59:25;98404.56;;;15.23;100.00
2184;BME280;1098;48.940;8.962;2023-03-19T10:02:03;98407.97;;;15.72;100.00
2184;BME280;1098;48.940;8.962;2023-03-19T10:04:43;98404.41;;;15.66;100.00
2184;BME280;1098;48.940;8.962;2023-03-19T10:07:31;98411.50;;;15.35;100.00
2184;BME280;1098;48.940;8.962;2023-03-19T10:10:16;98406.06;;;16.14;100.00
2184;BME280;1098;48.940;8.962;2023-03-19T10:12:56;98409.19;;;16.38;100.00
2184;BME280;1098;48.940;8.962;2023-03-19T10:15:30;98415.22;;;15.93;100.00
2184;BME280;1098;48.940;8.962;2023-03-19T10:18:02;98421.81;;;16.07;100.00
2184;BME280;1098;48.940;8.962;2023-03-19T10:20:43;98417.91;;;16.45;100.00
2184;BME280;1098;48.940;8.962;2023-03-19T10:23:30;98424.63;;;15.43;100.00
2184;BME280;1098;48.940;8.962;2023-03-19T10:26:09;98417.78;;;16.15;100.00
2184;BME280;1098;48.940;8.962;2023-03-19T10:28:42;98417.53;;;16.22;100.00
2184;BME280;1098;48.940;8.962;2023-03-19T10:31:25;98414.16;;;16.04;100.00
2184;BME280;1098;48.940;8.962;2023-03-19T10:34:06;98406.84;;;16.10;100.00
2184;BME280;1098;48.940;8.962;2023-03-19T10:36:43;98404.94;;;16.10;100.00
2184;BME280;1098;48.940;8.962;2023-03-19T10:39:14;98405.75;;;16.68;100.00
2184;BME280;1098;48.940;8.962;2023-03-19T10:41:47;98392.22;;;17.34;100.00
2184;BME280;1098;48.940;8.962;2023-03-19T10:44:26;98396.84;;;17.08;100.00
2184;BME280;1098;48.940;8.962;2023-03-19T10:47:09;98397.13;;;17.12;100.00
2184;BME280;1098;48.940;8.962;2023-03-19T10:49:40;98391.13;;;17.20;100.00
2184;BME280;1098;48.940;8.962;2023-03-19T10:52:21;98392.97;;;16.89;100.00
2184;BME280;1098;48.940;8.962;2023-03-19T10:54:56;98393.56;;;17.11;100.00
2184;BME280;1098;48.940;8.962;2023-03-19T10:57:31;98387.09;;;16.40;100.00
2184;BME280;1098;48.940;8.962;2023-03-19T11:00:02;98374.88;;;16.58;100.00
2184;BME280;1098;48.940;8.962;2023-03-19T11:02:34;98379.31;;;16.11;100.00
2184;BME280;1098;48.940;8.962;2023-03-19T11:05:21;98387.22;;;16.70;100.00
2184;BME280;1098;48.940;8.962;2023-03-19T11:07:54;98375.50;;;16.90;100.00
2184;BME280;1098;48.940;8.962;2023-03-19T11:10:25;98372.81;;;17.15;100.00
2184;BME280;1098;48.940;8.962;2023-03-19T11:12:55;98371.97;;;16.90;100.00
2184;BME280;1098;48.940;8.962;2023-03-19T11:15:27;98380.69;;;16.76;100.00
2184;BME280;1098;48.940;8.962;2023-03-19T11:17:59;98354.53;;;17.01;100.00
2184;BME280;1098;48.940;8.962;2023-03-19T11:20:32;98382.03;;;16.74;100.00
2184;BME280;1098;48.940;8.962;2023-03-19T11:23:02;98376.53;;;16.64;100.00
2184;BME280;1098;48.940;8.962;2023-03-19T11:25:35;98366.78;;;16.83;100.00
2184;BME280;1098;48.940;8.962;2023-03-19T11:28:12;98349.34;;;17.25;100.00
2184;BME280;1098;48.940;8.962;2023-03-19T11:30:46;98367.63;;;17.29;100.00
2184;BME280;1098;48.940;8.962;2023-03-19T11:33:29;98365.69;;;17.50;100.00
2184;BME280;1098;48.940;8.962;2023-03-19T11:36:08;98366.81;;;17.18;100.00
2184;BME280;1098;48.940;8.962;2023-03-19T11:38:48;98358.06;;;17.52;100.00
2184;BME280;1098;48.940;8.962;2023-03-19T11:41:28;98350.56;;;18.13;100.00
2184;BME280;1098;48.940;8.962;2023-03-19T11:44:04;98358.75;;;18.18;100.00
2184;BME280;1098;48.940;8.962;2023-03-19T11:46:37;98362.09;;;18.00;100.00
2184;BME280;1098;48.940;8.962;2023-03-19T11:49:26;98362.16;;;17.60;100.00
2184;BME280;1098;48.940;8.962;2023-03-19T11:52:06;98361.34;;;17.59;100.00
2184;BME280;1098;48.940;8.962;2023-03-19T11:54:44;98359.16;;;17.15;100.00
2184;BME280;1098;48.940;8.962;2023-03-19T11:57:21;98366.25;;;17.06;100.00
2184;BME280;1098;48.940;8.962;2023-03-19T12:00:00;98362.72;;;17.26;100.00
2184;BME280;1098;48.940;8.962;2023-03-19T12:05:50;98371.34;;;16.57;100.00
2184;BME280;1098;48.940;8.962;2023-03-19T12:08:31;98373.53;;;16.03;100.00
2184;BME280;1098;48.940;8.962;2023-03-19T12:11:09;98379.22;;;15.91;100.00
2184;BME280;1098;48.940;8.962;2023-03-19T12:13:58;98374.81;;;15.85;100.00
2184;BME280;1098;48.940;8.962;2023-03-19T12:16:42;98394.63;;;15.38;100.00
2184;BME280;1098;48.940;8.962;2023-03-19T12:19:30;98397.84;;;14.50;100.00
2184;BME280;1098;48.940;8.962;2023-03-19T12:22:11;98401.44;;;13.95;100.00
2184;BME280;1098;48.940;8.962;2023-03-19T12:24:57;98400.28;;;13.52;100.00
2184;BME280;1098;48.940;8.962;2023-03-19T12:27:32;98408.81;;;12.65;100.00
2184;BME280;1098;48.940;8.962;2023-03-19T12:30:12;98398.94;;;13.04;100.00
2184;BME280;1098;48.940;8.962;2023-03-19T12:32:55;98383.34;;;13.45;100.00
2184;BME280;1098;48.940;8.962;2023-03-19T12:35:31;98385.22;;;14.00;100.00
2184;BME280;1098;48.940;8.962;2023-03-19T12:38:05;98378.72;;;13.62;100.00
2184;BME280;1098;48.940;8.962;2023-03-19T12:40:41;98355.53;;;13.55;100.00
2184;BME280;1098;48.940;8.962;2023-03-19T12:43:16;98379.16;;;14.15;100.00
2184;BME280;1098;48.940;8.962;2023-03-19T12:45:48;98378.28;;;14.31;100.00
2184;BME280;1098;48.940;8.962;2023-03-19T12:48:21;98375.88;;;14.34;100.00
2184;BME280;1098;48.940;8.962;2023-03-19T12:50:55;98359.03;;;14.54;100.00
2184;BME280;1098;48.940;8.962;2023-03-19T12:53:34;98376.53;;;14.41;100.00
2184;BME280;1098;48.940;8.962;2023-03-19T12:56:16;98380.88;;;14.21;100.00
2184;BME280;1098;48.940;8.962;2023-03-19T12:58:52;98382.13;;;14.35;100.00
2184;BME280;1098;48.940;8.962;2023-03-19T13:01:26;98374.19;;;14.28;100.00
2184;BME280;1098;48.940;8.962;2023-03-19T13:04:02;98364.47;;;14.54;100.00
2184;BME280;1098;48.940;8.962;2023-03-19T13:06:34;98362.78;;;15.07;100.00
2184;BME280;1098;48.940;8.962;2023-03-19T13:09:10;98363.13;;;14.84;100.00
2184;BME280;1098;48.940;8.962;2023-03-19T13:11:46;98355.63;;;14.96;100.00
2184;BME280;1098;48.940;8.962;2023-03-19T13:14:21;98361.09;;;15.01;100.00
2184;BME280;1098;48.940;8.962;2023-03-19T13:16:57;98356.22;;;15.03;100.00
2184;BME280;1098;48.940;8.962;2023-03-19T13:19:31;98361.53;;;15.20;100.00
2184;BME280;1098;48.940;8.962;2023-03-19T13:22:10;98361.44;;;15.41;100.00
2184;BME280;1098;48.940;8.962;2023-03-19T13:24:41;98374.03;;;15.16;100.00
2184;BME280;1098;48.940;8.962;2023-03-19T13:27:16;98380.47;;;15.36;100.00
2184;BME280;1098;48.940;8.962;2023-03-19T13:30:05;98377.66;;;15.26;100.00
2184;BME280;1098;48.940;8.962;2023-03-19T13:32:38;98371.53;;;15.09;100.00
2184;BME280;1098;48.940;8.962;2023-03-19T13:35:12;98363.44;;;15.19;100.00
2184;BME280;1098;48.940;8.962;2023-03-19T13:37:44;98370.19;;;14.85;100.00
2184;BME280;1098;48.940;8.962;2023-03-19T13:40:41;98379.19;;;14.85;100.00
2184;BME280;1098;48.940;8.962;2023-03-19T13:43:39;98397.19;;;14.21;100.00
2184;BME280;1098;48.940;8.962;2023-03-19T13:46:36;98412.63;;;13.26;100.00
2184;BME280;1098;48.940;8.962;2023-03-19T13:49:27;98402.38;;;13.28;100.00
2184;BME280;1098;48.940;8.962;2023-03-19T13:51:59;98375.47;;;13.44;100.00